Kabul, Afghanistan
Current Conditions -  °F | °C
As of 10:50 AM on Wednesday 22 Oct 2014 (Local Time) from OAKB Reporting Station
Clear Clear  
Wind Chill: 70°   Ceiling: Unl
Heat Index: 70°   Visibility: 4mi
Dew Point: 39°   Wind: 2mph
Humidity: 33%   Direction: NA
Pressure: 30.33"   Gusts: NA
Location:  34.53°N, 69.17°E
Report Text: OAKB 220650Z VRB02KT 7000 NSC 21/04 Q1027 NOSIG RMK WHT BLU
Loading
Personal Weather Stations






























Interactive Weather Map
Tropical Storm Tracking
New forecast layout! Learn more

10-Day Weather Forecast

Advertisements
Track Severe Weather on mobile